Time;durP1;ratioP1;P1;durP2;ratioP2;P2;SDS_P1;SDS_P2;PMS_P1;PMS_P2;Temp;Humidity;BMP_temperature;BMP_pressure;BME280_temperature;BME280_humidity;BME280_pressure;Samples;Min_cycle;Max_cycle;Signal;HPM_P1;HPM_P2
2022/12/27 00:01:22;;;;;;;0.00;0.00;;;;;;;11.58;100.00;99581.63;6192836;23;20712;-85
2022/12/27 00:03:48;;;;;;;0.10;0.10;;;;;;;11.54;100.00;99575.09;6244743;23;20741;-86
2022/12/27 00:06:21;;;;;;;0.10;0.10;;;;;;;11.52;100.00;99583.38;6217193;23;20211;-88
2022/12/27 00:08:48;;;;;;;0.23;0.20;;;;;;;11.54;100.00;99559.81;6193906;23;20214;-88
2022/12/27 00:11:19;;;;;;;0.10;0.10;;;;;;;11.41;100.00;99573.41;6244830;23;20650;-88
2022/12/27 00:13:46;;;;;;;0.23;0.10;;;;;;;11.43;100.00;99590.09;6217848;23;20247;-89
2022/12/27 00:16:15;;;;;;;0.10;0.10;;;;;;;11.27;100.00;99596.06;6242994;23;20212;-88
2022/12/27 00:18:42;;;;;;;0.37;0.20;;;;;;;11.36;100.00;99594.72;6218487;23;20213;-88
2022/12/27 00:21:10;;;;;;;0.93;0.20;;;;;;;11.24;100.00;99588.47;6245245;23;20292;-88
2022/12/27 00:23:40;;;;;;;0.20;0.10;;;;;;;11.28;100.00;99603.06;6220167;23;20632;-87
2022/12/27 00:26:10;;;;;;;0.10;0.10;;;;;;;11.23;100.00;99605.59;6245985;23;20215;-88
2022/12/27 00:28:37;;;;;;;0.10;0.10;;;;;;;11.19;100.00;99604.41;6189315;23;20203;-87
2022/12/27 00:31:07;;;;;;;0.10;0.10;;;;;;;11.11;100.00;99596.66;6241701;23;20213;-88
2022/12/27 00:33:35;;;;;;;0.33;0.10;;;;;;;11.25;100.00;99611.53;6219856;23;20240;-88
2022/12/27 00:36:04;;;;;;;0.10;0.10;;;;;;;11.49;100.00;99599.91;6245876;23;20670;-85
2022/12/27 00:38:31;;;;;;;0.20;0.20;;;;;;;11.45;100.00;99604.91;6247306;23;20213;-85
2022/12/27 00:40:58;;;;;;;0.03;0.03;;;;;;;11.62;100.00;99607.00;6219742;23;20216;-86
2022/12/27 00:43:25;;;;;;;0.27;0.10;;;;;;;11.77;100.00;99620.81;6247839;23;20259;-85
2022/12/27 00:45:52;;;;;;;0.10;0.10;;;;;;;11.93;100.00;99632.81;6208613;23;20209;-84
2022/12/27 00:48:20;;;;;;;0.10;0.10;;;;;;;11.92;100.00;99631.97;6231528;23;20208;-85
2022/12/27 00:50:47;;;;;;;0.20;0.20;;;;;;;11.82;100.00;99629.03;6248211;23;20200;-85
2022/12/27 00:53:13;;;;;;;0.20;0.10;;;;;;;12.02;100.00;99634.94;6225811;23;20187;-84
2022/12/27 00:55:44;;;;;;;0.10;0.10;;;;;;;12.10;100.00;99647.22;6265008;23;20210;-84
2022/12/27 00:58:11;;;;;;;2.67;0.30;;;;;;;12.07;100.00;99642.31;6268765;23;20252;-84
2022/12/27 01:00:39;;;;;;;0.00;0.00;;;;;;;12.16;100.00;99655.19;6218433;23;20239;-83
2022/12/27 01:03:09;;;;;;;0.00;0.00;;;;;;;12.13;100.00;99646.78;6135671;23;20269;-83
2022/12/27 01:05:36;;;;;;;0.10;0.10;;;;;;;12.06;100.00;99652.22;6199326;23;20205;-83
2022/12/27 01:08:04;;;;;;;0.00;0.00;;;;;;;11.94;100.00;99654.06;6234985;23;20201;-83
2022/12/27 01:10:31;;;;;;;0.60;0.00;;;;;;;11.90;100.00;99675.16;6243323;23;20296;-83
2022/12/27 01:13:00;;;;;;;0.30;0.10;;;;;;;12.01;100.00;99681.63;6218701;23;20236;-83
2022/12/27 01:15:32;;;;;;;0.40;0.00;;;;;;;11.92;100.00;99677.63;6243178;23;20220;-83
2022/12/27 01:18:02;;;;;;;0.33;0.17;;;;;;;12.03;100.00;99705.56;6244901;23;20201;-83
2022/12/27 01:20:30;;;;;;;0.77;0.10;;;;;;;11.94;100.00;99710.44;6243447;23;20213;-83
2022/12/27 01:22:59;;;;;;;0.10;0.10;;;;;;;11.75;100.00;99704.28;6218418;23;20216;-83
2022/12/27 01:25:28;;;;;;;0.73;0.00;;;;;;;11.72;100.00;99699.34;6267474;23;20235;-85
2022/12/27 01:27:55;;;;;;;0.00;0.00;;;;;;;11.56;100.00;99696.44;6217310;23;20208;-84
2022/12/27 01:30:22;;;;;;;1.07;0.10;;;;;;;11.73;100.00;99705.53;6215396;23;20213;-84
2022/12/27 01:32:49;;;;;;;0.20;0.10;;;;;;;11.58;100.00;99691.63;6242082;23;20208;-84
2022/12/27 01:35:16;;;;;;;0.10;0.10;;;;;;;11.59;100.00;99710.22;6218358;23;20188;-84
2022/12/27 01:37:43;;;;;;;0.10;0.10;;;;;;;11.47;100.00;99722.75;6251605;23;20215;-83
2022/12/27 01:40:10;;;;;;;0.10;0.10;;;;;;;11.27;100.00;99722.13;6212671;23;20666;-84
2022/12/27 01:42:52;;;;;;;0.10;0.10;;;;;;;11.40;100.00;99717.44;6261138;23;20256;-84
2022/12/27 01:45:22;;;;;;;0.93;0.10;;;;;;;11.35;100.00;99717.28;6247174;23;20260;-84
2022/12/27 01:48:01;;;;;;;0.20;0.20;;;;;;;11.22;100.00;99735.38;6216393;23;20208;-84
2022/12/27 01:50:32;;;;;;;0.20;0.10;;;;;;;11.29;100.00;99728.88;6218967;23;20287;-83
2022/12/27 01:53:19;;;;;;;0.10;0.10;;;;;;;11.24;100.00;99744.84;6270394;23;20157;-83
2022/12/27 01:55:59;;;;;;;0.20;0.13;;;;;;;11.06;100.00;99746.66;6219862;23;20221;-83
2022/12/27 01:58:40;;;;;;;0.00;0.00;;;;;;;11.00;100.00;99743.00;6217221;23;20590;-83
2022/12/27 02:01:21;;;;;;;0.10;0.10;;;;;;;11.06;100.00;99739.41;6270595;23;20142;-84
2022/12/27 02:03:55;;;;;;;0.10;0.10;;;;;;;10.97;100.00;99743.41;6217972;23;20161;-83
2022/12/27 02:06:29;;;;;;;0.07;0.07;;;;;;;10.95;100.00;99740.16;6216816;23;20172;-84
2022/12/27 02:09:17;;;;;;;0.10;0.10;;;;;;;10.90;100.00;99737.31;6268093;23;20156;-83
2022/12/27 02:11:49;;;;;;;0.10;0.10;;;;;;;10.74;100.00;99740.50;6219044;23;20605;-83
2022/12/27 02:14:50;;;;;;;0.10;0.10;;;;;;;10.85;100.00;99745.19;6269310;23;20141;-84
2022/12/27 02:17:22;;;;;;;0.20;0.10;;;;;;;10.80;100.00;99736.97;6239386;23;20193;-84
2022/12/27 02:20:17;;;;;;;0.10;0.10;;;;;;;10.83;100.00;99745.38;6243656;23;20157;-83
2022/12/27 02:25:50;;;;;;;0.20;0.20;;;;;;;10.76;100.00;99741.97;6233680;23;20169;-84
2022/12/27 02:28:36;;;;;;;0.17;0.17;;;;;;;10.57;100.00;99756.31;6267574;23;20164;-84
2022/12/27 02:31:14;;;;;;;0.10;0.10;;;;;;;10.51;100.00;99747.28;6267427;23;20146;-83
2022/12/27 02:33:46;;;;;;;0.13;0.10;;;;;;;10.38;100.00;99747.38;6242034;23;20145;-84
2022/12/27 02:36:19;;;;;;;0.20;0.20;;;;;;;10.30;100.00;99744.13;6240529;23;20165;-84
2022/12/27 02:38:50;;;;;;;0.27;0.20;;;;;;;10.34;100.00;99742.66;6217879;23;20161;-84
2022/12/27 02:53:03;;;;;;;0.10;0.10;;;;;;;10.23;100.00;99760.22;6268361;23;20187;-84
2022/12/27 02:55:36;;;;;;;0.20;0.20;;;;;;;10.36;100.00;99775.41;6240536;23;20165;-83
2022/12/27 02:58:06;;;;;;;0.10;0.10;;;;;;;10.26;100.00;99783.91;6240949;23;20225;-84
2022/12/27 03:04:15;;;;;;;0.27;0.20;;;;;;;10.12;100.00;99799.16;6267450;23;20188;-84
2022/12/27 03:06:53;;;;;;;0.20;0.20;;;;;;;10.02;100.00;99784.59;6242606;23;20161;-84
2022/12/27 03:15:58;;;;;;;0.50;0.30;;;;;;;10.12;100.00;99793.00;6268467;23;20158;-84
2022/12/27 03:18:27;;;;;;;0.20;0.20;;;;;;;9.88;100.00;99789.19;6267320;23;20193;-84
2022/12/27 03:26:34;;;;;;;0.30;0.30;;;;;;;9.75;100.00;99780.38;6261619;23;20153;-83
2022/12/27 03:34:47;;;;;;;0.40;0.30;;;;;;;9.89;100.00;99796.16;6239153;23;20177;-83
2022/12/27 03:40:39;;;;;;;0.20;0.20;;;;;;;9.91;100.00;99820.88;6236841;23;20209;-84
2022/12/27 03:43:14;;;;;;;0.10;0.10;;;;;;;9.89;100.00;99830.94;6185403;23;20154;-83
2022/12/27 03:46:34;;;;;;;0.20;0.20;;;;;;;9.87;100.00;99857.09;6185108;23;20184;-84
2022/12/27 03:49:21;;;;;;;0.87;0.17;;;;;;;9.98;100.00;99861.81;6236771;23;20236;-83
2022/12/27 03:52:00;;;;;;;0.10;0.10;;;;;;;9.93;100.00;99869.66;6236237;23;20479;-84
2022/12/27 03:54:31;;;;;;;0.77;0.30;;;;;;;9.91;100.00;99868.22;6209775;23;20165;-84
2022/12/27 03:57:02;;;;;;;0.97;0.23;;;;;;;9.91;100.00;99889.63;6211765;23;20208;-84
2022/12/27 03:59:30;;;;;;;0.30;0.20;;;;;;;9.92;100.00;99886.75;6181045;23;20170;-84
2022/12/27 04:01:59;;;;;;;0.50;0.20;;;;;;;10.00;100.00;99891.88;6205059;23;20173;-84
2022/12/27 04:04:30;;;;;;;0.50;0.20;;;;;;;9.90;100.00;99893.31;6210187;23;20162;-83
2022/12/27 04:06:58;;;;;;;0.50;0.23;;;;;;;9.75;100.00;99911.47;6235329;23;20229;-84
2022/12/27 04:36:10;;;;;;;0.37;0.30;;;;;;;9.66;100.00;99914.34;6208578;23;20186;-84
2022/12/27 04:38:38;;;;;;;0.57;0.40;;;;;;;9.67;100.00;99924.03;6263795;23;20229;-84
2022/12/27 04:55:18;;;;;;;0.20;0.20;;;;;;;9.88;100.00;99987.22;6243639;23;20236;-84
2022/12/27 04:57:47;;;;;;;0.93;0.30;;;;;;;9.83;100.00;99976.31;6238599;23;20601;-83
2022/12/27 05:03:12;;;;;;;0.87;0.30;;;;;;;10.07;100.00;100009.66;6244420;23;20239;-83
2022/12/27 05:05:41;;;;;;;0.30;0.30;;;;;;;9.92;100.00;100019.75;6239539;23;20181;-83
2022/12/27 05:14:00;;;;;;;0.87;0.40;;;;;;;9.95;100.00;100016.66;6266329;23;20201;-84
2022/12/27 05:16:35;;;;;;;0.90;0.30;;;;;;;9.91;100.00;100023.44;6245247;23;20231;-84
2022/12/27 05:19:04;;;;;;;0.30;0.30;;;;;;;9.76;100.00;100022.81;6266919;23;20260;-84
2022/12/27 05:21:37;;;;;;;0.30;0.30;;;;;;;9.76;100.00;100030.84;6241623;23;20205;-83
2022/12/27 05:26:58;;;;;;;1.97;0.30;;;;;;;9.58;100.00;100040.28;6240664;23;20213;-84
2022/12/27 05:29:29;;;;;;;0.60;0.30;;;;;;;9.53;100.00;100052.63;6216237;23;20208;-84
2022/12/27 05:31:59;;;;;;;0.40;0.40;;;;;;;9.51;100.00;100052.00;6240233;23;20220;-84
2022/12/27 05:34:38;;;;;;;0.50;0.30;;;;;;;9.56;100.00;100052.22;6265295;23;20212;-83
2022/12/27 05:37:06;;;;;;;0.40;0.40;;;;;;;9.37;100.00;100042.31;6241225;23;20260;-83
2022/12/27 05:39:35;;;;;;;0.23;0.23;;;;;;;9.35;100.00;100069.25;6215620;23;20260;-83
2022/12/27 05:42:02;;;;;;;1.40;0.30;;;;;;;9.29;100.00;100059.34;6266251;23;20205;-82
2022/12/27 05:44:30;;;;;;;0.40;0.40;;;;;;;9.15;100.00;100062.97;6239781;23;20231;-83
2022/12/27 05:46:57;;;;;;;0.60;0.30;;;;;;;9.22;100.00;100051.31;6266889;23;20707;-83
2022/12/27 05:49:24;;;;;;;0.60;0.37;;;;;;;9.19;100.00;100061.59;6239573;23;20278;-83
2022/12/27 05:51:53;;;;;;;0.63;0.30;;;;;;;8.99;100.00;100085.56;6225849;23;20210;-83
2022/12/27 05:54:21;;;;;;;0.40;0.40;;;;;;;8.82;100.00;100082.38;6198989;23;20265;-84
2022/12/27 05:56:49;;;;;;;1.00;0.33;;;;;;;8.87;100.00;100087.13;6241987;23;20192;-83
2022/12/27 05:59:17;;;;;;;0.20;0.20;;;;;;;8.92;100.00;100107.91;6266549;23;20204;-83
2022/12/27 06:01:44;;;;;;;0.40;0.30;;;;;;;8.86;100.00;100082.00;6214922;23;20212;-83
2022/12/27 06:04:13;;;;;;;0.53;0.40;;;;;;;8.73;99.81;100106.75;6266437;23;20212;-83
2022/12/27 06:06:42;;;;;;;1.83;0.30;;;;;;;8.71;100.00;100106.16;6216667;23;20262;-83
2022/12/27 06:09:10;;;;;;;0.60;0.40;;;;;;;8.64;100.00;100119.44;6239662;23;20214;-83
2022/12/27 06:11:40;;;;;;;0.43;0.30;;;;;;;8.30;100.00;100133.59;6267531;23;20191;-83
2022/12/27 06:14:09;;;;;;;0.73;0.30;;;;;;;8.42;100.00;100149.91;6267369;23;20187;-83
2022/12/27 06:16:37;;;;;;;0.37;0.30;;;;;;;8.44;100.00;100145.19;6218113;23;20191;-83
2022/12/27 06:19:06;;;;;;;0.73;0.47;;;;;;;8.14;100.00;100157.84;6241269;23;20237;-83
2022/12/27 06:21:33;;;;;;;0.63;0.40;;;;;;;8.07;99.51;100178.28;6239535;23;20161;-83
2022/12/27 06:24:00;;;;;;;1.90;0.30;;;;;;;8.19;98.73;100183.94;6242079;23;20169;-83
2022/12/27 06:26:28;;;;;;;0.60;0.40;;;;;;;7.95;99.25;100198.47;6267029;23;20189;-83
2022/12/27 06:28:57;;;;;;;0.57;0.40;;;;;;;8.05;97.03;100190.19;6216165;23;20175;-83
2022/12/27 06:31:26;;;;;;;1.17;0.60;;;;;;;7.94;97.16;100219.00;6193160;23;20161;-83
2022/12/27 06:33:53;;;;;;;1.40;0.40;;;;;;;7.89;97.90;100223.25;6216247;23;20176;-83
2022/12/27 06:36:29;;;;;;;1.37;0.37;;;;;;;7.79;97.66;100220.88;6266571;23;20168;-83
2022/12/27 06:38:57;;;;;;;0.37;0.30;;;;;;;7.68;96.00;100212.53;6240875;23;20252;-83
2022/12/27 06:41:25;;;;;;;0.50;0.50;;;;;;;7.59;94.80;100214.50;6268459;23;20160;-83
2022/12/27 06:43:56;;;;;;;1.10;0.40;;;;;;;7.57;95.62;100251.16;6267874;23;20150;-81
2022/12/27 06:46:24;;;;;;;1.20;0.40;;;;;;;7.46;95.40;100249.81;6215764;23;20172;-81
2022/12/27 06:48:53;;;;;;;0.60;0.40;;;;;;;7.45;94.07;100269.47;6192546;23;20167;-81
2022/12/27 06:51:21;;;;;;;0.60;0.40;;;;;;;7.37;93.83;100253.56;6216083;23;20248;-80
2022/12/27 06:53:48;;;;;;;1.13;0.50;;;;;;;7.21;95.37;100279.56;6216694;23;20165;-80
2022/12/27 06:56:18;;;;;;;0.97;0.43;;;;;;;7.29;95.10;100277.63;6241380;23;20205;-80
2022/12/27 06:58:46;;;;;;;0.50;0.50;;;;;;;7.25;95.15;100286.19;6236462;23;20216;-81
2022/12/27 07:01:18;;;;;;;0.67;0.40;;;;;;;7.30;95.50;100299.78;6213876;23;20169;-81
2022/12/27 07:03:50;;;;;;;1.90;0.73;;;;;;;7.24;94.98;100313.84;6218650;23;20173;-80
2022/12/27 07:06:19;;;;;;;1.00;0.50;;;;;;;7.00;95.86;100313.06;6262145;23;20536;-80
2022/12/27 07:08:49;;;;;;;1.70;0.53;;;;;;;7.04;95.93;100335.69;6236193;23;20192;-80
2022/12/27 07:11:17;;;;;;;0.43;0.43;;;;;;;6.99;95.78;100329.25;6216444;23;20165;-81
2022/12/27 07:13:49;;;;;;;1.30;0.40;;;;;;;6.89;95.56;100329.47;6216260;23;20169;-81
2022/12/27 07:16:20;;;;;;;0.70;0.50;;;;;;;7.03;93.24;100335.88;6268387;23;20149;-81
2022/12/27 07:18:48;;;;;;;1.07;0.50;;;;;;;6.92;93.16;100334.44;6266986;23;20177;-81
2022/12/27 07:21:18;;;;;;;0.40;0.40;;;;;;;6.85;90.67;100338.84;6216966;23;20168;-82
2022/12/27 07:23:45;;;;;;;0.80;0.50;;;;;;;6.96;90.77;100358.88;6242738;23;20165;-81
2022/12/27 07:26:20;;;;;;;1.07;0.50;;;;;;;6.93;91.72;100356.59;6264484;23;20162;-80
2022/12/27 07:28:47;;;;;;;0.40;0.40;;;;;;;7.04;92.35;100361.50;6236154;23;20173;-80
2022/12/27 07:31:17;;;;;;;0.87;0.60;;;;;;;6.96;93.19;100367.72;6235286;23;20553;-81
2022/12/27 07:33:44;;;;;;;0.63;0.37;;;;;;;6.91;93.18;100391.38;6260091;23;20161;-81
2022/12/27 07:36:16;;;;;;;0.67;0.50;;;;;;;6.87;93.99;100402.56;6208496;23;20219;-80
2022/12/27 07:38:43;;;;;;;1.10;0.60;;;;;;;6.88;93.44;100394.41;6233051;23;20176;-80
2022/12/27 07:41:11;;;;;;;0.80;0.70;;;;;;;6.97;93.20;100395.19;6233910;23;20164;-80
2022/12/27 07:43:38;;;;;;;0.73;0.50;;;;;;;6.86;93.54;100401.75;6232594;23;20189;-81
2022/12/27 07:46:07;;;;;;;1.53;0.50;;;;;;;6.84;94.12;100422.41;6233019;23;20172;-80
2022/12/27 07:48:34;;;;;;;0.80;0.50;;;;;;;6.95;93.29;100415.88;6260796;23;20188;-81
2022/12/27 07:51:02;;;;;;;0.97;0.43;;;;;;;7.02;93.61;100422.97;6232026;23;20161;-79
2022/12/27 07:53:29;;;;;;;4.70;0.80;;;;;;;6.85;94.05;100424.09;6250486;23;20205;-81
2022/12/27 07:55:56;;;;;;;0.90;0.40;;;;;;;6.81;94.67;100411.28;6238420;23;20212;-80
2022/12/27 07:58:24;;;;;;;1.60;0.60;;;;;;;6.81;93.93;100433.41;6237695;23;20216;-81
2022/12/27 08:00:51;;;;;;;0.50;0.50;;;;;;;6.70;93.31;100425.00;6238198;23;20261;-81
2022/12/27 08:03:24;;;;;;;0.80;0.70;;;;;;;6.77;94.00;100441.91;6213863;23;20224;-81
2022/12/27 08:05:51;;;;;;;1.77;0.70;;;;;;;6.52;94.91;100436.75;6237405;23;20227;-81
2022/12/27 08:08:21;;;;;;;0.93;0.60;;;;;;;6.60;95.96;100446.50;6212858;23;20201;-81
2022/12/27 08:10:51;;;;;;;1.03;0.40;;;;;;;6.57;95.66;100445.03;6214498;23;20157;-82
2022/12/27 08:13:19;;;;;;;0.60;0.53;;;;;;;6.67;94.30;100454.66;6212775;23;20208;-81
2022/12/27 08:15:46;;;;;;;0.60;0.40;;;;;;;6.53;95.17;100458.88;6238793;23;20185;-81
2022/12/27 08:18:13;;;;;;;0.63;0.50;;;;;;;6.41;94.60;100450.44;6212440;23;20259;-80
2022/12/27 08:20:40;;;;;;;0.50;0.50;;;;;;;6.51;92.61;100453.72;6215844;23;20161;-80
2022/12/27 08:23:15;;;;;;;1.50;0.53;;;;;;;6.41;94.00;100446.94;6217523;23;20219;-81
2022/12/27 08:25:44;;;;;;;1.03;0.60;;;;;;;6.59;92.20;100453.66;6240695;23;20205;-81
2022/12/27 08:28:18;;;;;;;0.97;0.53;;;;;;;6.60;91.96;100446.50;6216539;23;20204;-82
2022/12/27 08:30:46;;;;;;;0.60;0.47;;;;;;;6.61;92.14;100445.53;6239598;23;20197;-81
2022/12/27 08:33:14;;;;;;;0.50;0.40;;;;;;;6.86;92.63;100470.19;6265348;23;20224;-80
2022/12/27 08:35:44;;;;;;;1.57;0.60;;;;;;;6.77;90.17;100453.41;6248377;23;20208;-81
2022/12/27 08:38:20;;;;;;;2.00;0.60;;;;;;;6.80;91.20;100468.22;6234651;23;20226;-80
2022/12/27 08:40:47;;;;;;;0.60;0.50;;;;;;;6.84;91.03;100466.88;6235439;23;20209;-83
2022/12/27 08:43:14;;;;;;;1.07;0.67;;;;;;;6.85;91.59;100473.84;6259400;23;20728;-81
2022/12/27 08:45:41;;;;;;;1.23;0.60;;;;;;;6.82;92.61;100471.53;6230702;23;20213;-81
2022/12/27 08:48:08;;;;;;;0.53;0.40;;;;;;;6.85;92.51;100484.50;6253043;23;20201;-81
2022/12/27 08:50:35;;;;;;;1.27;0.70;;;;;;;6.78;91.35;100479.03;6264649;23;20236;-81
2022/12/27 08:53:03;;;;;;;0.60;0.57;;;;;;;6.77;91.70;100471.22;6237689;23;20209;-81
2022/12/27 08:55:30;;;;;;;0.77;0.60;;;;;;;6.85;92.09;100479.19;6235136;23;20228;-80
2022/12/27 08:57:58;;;;;;;1.57;0.53;;;;;;;6.79;91.95;100486.03;6234768;23;20674;-81
2022/12/27 09:00:26;;;;;;;1.63;0.50;;;;;;;6.75;91.25;100503.38;6234647;23;20204;-81
2022/12/27 09:02:54;;;;;;;1.03;0.60;;;;;;;6.86;92.20;100508.28;6187939;23;20197;-80
2022/12/27 09:05:22;;;;;;;2.13;0.80;;;;;;;6.79;92.31;100493.19;6264576;23;20258;-82
2022/12/27 09:07:49;;;;;;;1.23;0.80;;;;;;;6.78;92.56;100488.88;6238846;23;20255;-80
2022/12/27 09:10:17;;;;;;;0.60;0.50;;;;;;;7.05;90.30;100499.88;6263172;23;20235;-80
2022/12/27 09:12:45;;;;;;;1.57;0.50;;;;;;;6.95;90.17;100501.13;6263891;23;20205;-81
2022/12/27 09:15:12;;;;;;;2.90;0.57;;;;;;;7.05;90.21;100513.19;6237639;23;20209;-82
2022/12/27 09:17:39;;;;;;;0.83;0.57;;;;;;;7.02;89.54;100505.56;6236140;23;20206;-81
2022/12/27 09:20:07;;;;;;;2.20;0.50;;;;;;;7.11;89.78;100505.50;6224818;23;20200;-80
2022/12/27 09:22:34;;;;;;;1.07;0.50;;;;;;;7.15;88.70;100514.78;6237648;23;20208;-81
2022/12/27 09:25:01;;;;;;;1.13;0.50;;;;;;;7.20;86.47;100515.09;6214805;23;20223;-80
2022/12/27 09:27:29;;;;;;;1.50;0.60;;;;;;;7.16;85.51;100525.28;6264714;23;20209;-82
2022/12/27 09:29:57;;;;;;;1.70;0.67;;;;;;;7.13;85.95;100511.50;6264887;23;20215;-81
2022/12/27 09:32:26;;;;;;;1.30;0.43;;;;;;;7.28;86.46;100521.22;6250059;23;20209;-81
2022/12/27 09:34:53;;;;;;;1.67;0.60;;;;;;;7.28;86.21;100521.22;6238674;23;20212;-81
2022/12/27 09:37:20;;;;;;;0.60;0.50;;;;;;;7.27;85.96;100508.91;6211526;23;20205;-81
2022/12/27 09:39:47;;;;;;;1.47;0.70;;;;;;;7.35;86.16;100518.69;6263284;23;20212;-82
2022/12/27 09:42:38;;;;;;;2.03;0.80;;;;;;;7.46;86.10;100521.78;6236175;23;20233;-81
2022/12/27 09:45:48;;;;;;;0.83;0.60;;;;;;;7.53;83.04;100522.72;6260546;23;20259;-81
2022/12/27 09:48:37;;;;;;;0.90;0.70;;;;;;;7.57;83.15;100528.50;6250519;23;20213;-81
2022/12/27 09:51:13;;;;;;;0.90;0.60;;;;;;;7.50;82.52;100530.25;6236593;23;20227;-83
2022/12/27 09:53:45;;;;;;;1.40;0.60;;;;;;;7.52;83.42;100528.19;6232469;23;20208;-81
2022/12/27 09:56:29;;;;;;;0.80;0.60;;;;;;;7.53;82.81;100519.22;6236924;23;20260;-81
2022/12/27 09:59:32;;;;;;;2.20;0.70;;;;;;;7.64;82.36;100532.13;6255774;23;20261;-81
2022/12/27 10:01:59;;;;;;;1.57;0.70;;;;;;;7.58;80.28;100513.34;6255946;23;20208;-81
2022/12/27 10:04:28;;;;;;;0.93;0.60;;;;;;;7.78;80.37;100525.19;6258228;22;20230;-81
2022/12/27 10:07:30;;;;;;;3.90;0.50;;;;;;;7.81;77.70;100509.63;6196650;23;20212;-81
2022/12/27 10:10:04;;;;;;;1.03;0.53;;;;;;;7.73;76.19;100514.22;6206354;23;20597;-80
2022/12/27 10:12:45;;;;;;;1.20;0.50;;;;;;;7.70;73.89;100512.72;6226915;23;20226;-80
2022/12/27 10:15:27;;;;;;;0.87;0.30;;;;;;;7.58;73.95;100506.16;6202164;23;20212;-80
2022/12/27 10:18:18;;;;;;;0.97;0.60;;;;;;;7.49;74.01;100512.56;6214591;22;20216;-81
2022/12/27 10:20:56;;;;;;;0.73;0.57;;;;;;;7.53;74.62;100525.38;6200303;22;20213;-77
2022/12/27 10:23:27;;;;;;;1.33;0.63;;;;;;;7.69;74.17;100523.59;6170127;23;20213;-80
2022/12/27 10:26:10;;;;;;;0.93;0.50;;;;;;;7.70;73.68;100523.41;6196700;23;20209;-81
2022/12/27 10:28:59;;;;;;;0.87;0.50;;;;;;;7.66;70.34;100516.75;6226335;23;20202;-80
2022/12/27 10:31:27;;;;;;;0.97;0.43;;;;;;;7.56;71.52;100513.50;6192101;23;20208;-79
2022/12/27 10:33:57;;;;;;;0.43;0.40;;;;;;;7.71;71.70;100526.91;6196899;23;20225;-80
2022/12/27 10:36:26;;;;;;;0.73;0.43;;;;;;;7.72;70.61;100523.22;6190522;23;20217;-80
2022/12/27 10:38:53;;;;;;;1.00;0.40;;;;;;;7.78;70.84;100520.69;6218921;23;20217;-80
2022/12/27 10:41:41;;;;;;;0.60;0.50;;;;;;;7.75;69.04;100520.19;6215421;23;20225;-80
2022/12/27 10:44:11;;;;;;;1.33;0.30;;;;;;;7.68;69.68;100540.59;6189075;23;20218;-79
2022/12/27 10:46:38;;;;;;;0.80;0.40;;;;;;;7.71;69.12;100522.38;6214749;23;20602;-80
2022/12/27 10:49:11;;;;;;;0.60;0.50;;;;;;;7.68;69.69;100537.94;6220400;23;20236;-79
2022/12/27 10:51:50;;;;;;;0.60;0.40;;;;;;;7.78;69.28;100525.19;6229501;22;20215;-80
2022/12/27 10:54:26;;;;;;;0.50;0.40;;;;;;;7.82;70.12;100527.31;6225932;23;20212;-79
2022/12/27 10:56:54;;;;;;;1.40;0.50;;;;;;;7.87;70.60;100521.44;6260881;23;20177;-81
2022/12/27 10:59:23;;;;;;;0.70;0.40;;;;;;;7.82;68.42;100526.47;6226336;23;20208;-79
2022/12/27 11:01:59;;;;;;;1.20;0.40;;;;;;;7.88;68.48;100521.25;6250051;23;20204;-79
2022/12/27 11:04:27;;;;;;;0.63;0.60;;;;;;;7.85;68.75;100516.25;6248755;23;20208;-80
2022/12/27 11:07:00;;;;;;;0.90;0.40;;;;;;;7.82;68.15;100510.47;6261399;23;20248;-80
2022/12/27 11:09:27;;;;;;;0.87;0.50;;;;;;;7.88;68.95;100515.09;6250889;23;20204;-80
2022/12/27 11:12:13;;;;;;;1.30;0.50;;;;;;;7.93;69.15;100510.03;6253012;23;20894;-80
2022/12/27 11:14:52;;;;;;;0.60;0.47;;;;;;;7.93;68.98;100508.19;6246911;23;20189;-80
2022/12/27 11:17:43;;;;;;;1.23;0.50;;;;;;;7.93;68.73;100499.38;6253887;22;20215;-81
2022/12/27 11:23:09;;;;;;;1.47;0.50;;;;;;;8.16;68.51;100505.47;6273960;22;20231;-80
2022/12/27 11:25:51;;;;;;;1.67;0.70;;;;;;;8.09;68.21;100507.19;6280160;22;20199;-81
2022/12/27 11:28:37;;;;;;;0.70;0.50;;;;;;;8.13;69.82;100503.16;6252079;22;20657;-80
2022/12/27 11:31:09;;;;;;;1.03;0.60;;;;;;;8.13;68.27;100499.66;6279984;22;20212;-80
2022/12/27 11:33:44;;;;;;;0.90;0.47;;;;;;;8.05;69.06;100497.06;6127064;22;20738;-80
2022/12/27 11:36:11;;;;;;;1.27;0.40;;;;;;;8.18;69.28;100506.09;6251640;22;20207;-80
2022/12/27 11:38:44;;;;;;;1.60;0.40;;;;;;;8.29;69.02;100495.03;6252015;22;20292;-80
2022/12/27 11:41:33;;;;;;;1.67;0.47;;;;;;;8.45;68.71;100496.66;6280312;22;20652;-80
2022/12/27 11:44:08;;;;;;;0.30;0.30;;;;;;;8.46;68.64;100501.00;6265077;22;20718;-80
2022/12/27 11:46:44;;;;;;;0.53;0.40;;;;;;;8.48;69.98;100495.47;6252554;22;20204;-80
2022/12/27 11:49:23;;;;;;;0.60;0.33;;;;;;;8.22;70.64;100487.88;6251414;22;20214;-80
2022/12/27 11:52:11;;;;;;;0.70;0.40;;;;;;;8.40;70.06;100483.03;6280170;22;20295;-81
2022/12/27 11:55:15;;;;;;;0.77;0.40;;;;;;;8.41;70.75;100474.00;6280619;22;20214;-80
2022/12/27 11:57:54;;;;;;;0.70;0.40;;;;;;;8.42;71.24;100458.81;6280219;22;20184;-80
2022/12/27 12:00:25;;;;;;;0.80;0.50;;;;;;;8.50;70.71;100459.53;6277392;22;20609;-80
2022/12/27 12:03:14;;;;;;;1.70;0.50;;;;;;;8.48;71.26;100469.59;6279401;22;20217;-81
2022/12/27 12:05:56;;;;;;;0.80;0.50;;;;;;;8.41;70.85;100474.00;6279779;22;20231;-80
2022/12/27 12:08:38;;;;;;;1.40;0.50;;;;;;;8.46;70.79;100473.44;6278079;22;20550;-81
2022/12/27 12:11:17;;;;;;;1.40;0.60;;;;;;;8.34;71.62;100465.09;6252701;22;20245;-81
2022/12/27 12:14:06;;;;;;;1.50;0.70;;;;;;;8.43;71.26;100472.00;6252703;22;20286;-80
2022/12/27 12:16:58;;;;;;;0.90;0.50;;;;;;;8.37;71.98;100465.53;6281265;22;20258;-80
2022/12/27 12:19:59;;;;;;;2.83;0.60;;;;;;;8.39;71.87;100468.03;6224301;22;20660;-80
2022/12/27 12:22:57;;;;;;;2.20;0.40;;;;;;;8.40;71.13;100462.50;6254200;22;20208;-80
2022/12/27 12:26:09;;;;;;;1.90;0.70;;;;;;;8.36;72.06;100453.19;6255093;22;20227;-80
2022/12/27 12:29:09;;;;;;;1.50;0.60;;;;;;;8.45;70.22;100453.09;6281853;22;20542;-80
2022/12/27 12:31:50;;;;;;;0.80;0.70;;;;;;;8.30;71.79;100445.13;6253994;22;20208;-81
2022/12/27 12:34:28;;;;;;;2.57;0.70;;;;;;;8.45;71.93;100445.09;6281271;22;20580;-80
2022/12/27 12:37:16;;;;;;;0.57;0.50;;;;;;;8.35;71.91;100440.06;6254994;22;20208;-80
2022/12/27 12:40:37;;;;;;;0.70;0.50;;;;;;;8.29;72.22;100440.75;6233710;22;20226;-81
2022/12/27 12:43:23;;;;;;;1.10;0.50;;;;;;;8.20;72.48;100440.03;6214253;22;20208;-81
2022/12/27 12:46:10;;;;;;;1.00;0.50;;;;;;;8.33;72.82;100436.72;6282633;22;20203;-80
2022/12/27 12:49:04;;;;;;;1.33;0.53;;;;;;;8.21;73.09;100441.66;6253981;22;20219;-80
2022/12/27 12:51:59;;;;;;;1.40;0.60;;;;;;;8.30;72.65;100448.63;6282493;22;20620;-81
2022/12/27 12:54:47;;;;;;;4.07;0.50;;;;;;;8.13;73.60;100439.09;6255886;22;20540;-80
2022/12/27 12:57:23;;;;;;;2.80;0.50;;;;;;;8.23;73.11;100444.16;6280689;22;20220;-80
2022/12/27 12:59:56;;;;;;;1.53;0.50;;;;;;;8.10;73.88;100434.13;6243626;22;20204;-80
2022/12/27 13:02:40;;;;;;;0.73;0.40;;;;;;;8.25;73.07;100437.63;6261718;22;20197;-80
2022/12/27 13:05:13;;;;;;;0.97;0.43;;;;;;;8.30;73.46;100432.59;6264748;22;20660;-80
2022/12/27 13:08:10;;;;;;;1.23;0.40;;;;;;;8.22;74.64;100434.50;6256365;22;20602;-81
2022/12/27 13:10:46;;;;;;;1.57;0.70;;;;;;;8.24;74.34;100437.81;6236011;22;20261;-81
2022/12/27 13:13:28;;;;;;;1.60;0.40;;;;;;;8.16;74.60;100430.75;6282734;22;20231;-80
2022/12/27 13:15:57;;;;;;;0.50;0.40;;;;;;;8.10;75.46;100434.13;6257042;22;20266;-80
2022/12/27 13:18:38;;;;;;;1.60;0.70;;;;;;;8.16;76.55;100437.91;6283213;22;20233;-81
2022/12/27 13:21:26;;;;;;;1.60;0.70;;;;;;;8.06;76.54;100437.34;6254808;22;20724;-80
2022/12/27 13:24:24;;;;;;;1.23;0.50;;;;;;;8.03;76.32;100433.19;6282164;22;20664;-80
2022/12/27 13:27:13;;;;;;;1.77;0.60;;;;;;;7.97;77.83;100434.78;6282021;22;20273;-80
2022/12/27 13:30:12;;;;;;;2.00;0.63;;;;;;;7.89;78.21;100424.19;6255255;22;20746;-80
2022/12/27 13:33:00;;;;;;;1.13;0.70;;;;;;;7.87;78.26;100422.72;6254659;22;20216;-80
2022/12/27 13:35:49;;;;;;;2.40;1.13;;;;;;;7.74;78.51;100427.84;6282186;22;20238;-81
2022/12/27 13:38:37;;;;;;;1.83;1.00;;;;;;;7.78;78.89;100426.47;6254099;22;20204;-80